Nearby METAR Reports

 

KARR - Chicago/Aurora, Illinois, USA
Distance from station: S 8mi, 13km
Updated: 08/20/2019 8:52am
Mist, Mostly cloudy
Mist, Mostly cloudy
 Wind from ESE
Wind: ESE 5 mph , 7 km/h
Temperature: 73°F , 23°C
Dew Point: 72°F , 22°C
Humidity: 94%
Barometer: 1015.9 hPa
Summary: Mist
Clouds: Mostly cloudy
Visibility: 2 1/2 miles , 4 km
Cloud details: Mostly cloudy 800 ft
2019/08/20 13:52 KARR 201352Z 12004KT 2 1/2SM BR BKN008 23/22 A3000 RMK AO2 SLP153 T02280217
KDKB - De Kalb, Illinois, USA
Distance from station: WNW 12mi, 19km
Updated: 08/20/2019 9:35am
Mist, Overcast
Mist, Overcast
 Wind from E
Wind: E 3 mph , 6 km/h
Temperature: 70°F , 21°C
Dew Point: 70°F , 21°C
Humidity: 100%
Barometer: 1015.9 hPa
Summary: Mist
Clouds: Overcast
Visibility: 1 1/2 miles , 2.4 km
Cloud details: Overcast 300 ft
2019/08/20 14:35 KDKB 201435Z AUTO 08003KT 1 1/2SM BR OVC003 21/21 A3000 RMK AO2 LTG DSNT SW AND W T02100210
 
KDPA - Chicago/Dupage, Illinois, USA
Distance from station: E 12mi, 19km
Updated: 08/20/2019 9:34am
Mist, Partly cloudy
Mist, Partly cloudy
 Wind from S
Wind: S 3 mph , 6 km/h
Temperature: 75°F , 24°C
Dew Point: 72°F , 22°C
Humidity: 89%
Barometer: 1015.6 hPa
Summary: Mist
Clouds: Partly cloudy
Visibility: 4 miles , 6 km
Cloud details: Partly cloudy 600 ft
2019/08/20 14:34 KDPA 201434Z 17003KT 4SM BR SCT006 24/22 A2999 RMK AO2 T02390217
KLOT - Romeoville/Chi, Illinois, USA
Distance from station: SE 28mi, 45km
Updated: 08/20/2019 9:35am
Mist, Clear
Mist, Clear
 Wind from SSE
Wind: SSE 5 mph , 7 km/h
Temperature: 75°F , 24°C
Dew Point: 73°F , 23°C
Humidity: 94%
Barometer: 1015.9 hPa
Summary: Mist
Clouds: Clear
Visibility: 5 miles , 8 km
2019/08/20 14:35 KLOT 201435Z AUTO 15004KT 5SM BR CLR 24/23 A3000 RMK AO2 LTG DSNT W T02370231
 
KORD - Chicago O'hare, Illinois, USA
Distance from station: ENE 29mi, 46km
Updated: 08/20/2019 8:51am
Mist, Overcast
Mist, Overcast
 Wind from SW
Wind: SW 5 mph , 7 km/h
Temperature: 75°F , 24°C
Dew Point: 72°F , 22°C
Humidity: 89%
Barometer: 1016.3 hPa
Summary: Mist
Clouds: Overcast
Visibility: 6 miles , 10 km
Cloud details: Few Clouds 1000 ft
Few Clouds 5000 ft
Overcast 25000 ft
2019/08/20 13:51 KORD 201351Z 22004KT 6SM BR FEW010 FEW050 OVC250 24/22 A3001 RMK AO2 SLP157 T02390217
KJOT - Joliet, Illinois, USA
Distance from station: SSE 30mi, 48km
Updated: 08/20/2019 9:35am
Mist, Clear
Mist, Clear
 Wind from calm
Wind: Calm
Temperature: 77°F , 25°C
Dew Point: 77°F , 25°C
Humidity: 100%
Barometer: 1015.6 hPa
Summary: Mist
Clouds: Clear
Visibility: 5 miles , 8 km
2019/08/20 14:35 KJOT 201435Z AUTO 00000KT 5SM BR CLR 25/25 A2999 RMK AO2 LTG DSNT SW AND W T02460246
 
KRPJ - Rochelle/Koritz, Illinois, USA
Distance from station: W 31mi, 50km
Updated: 08/20/2019 9:35am

 Wind from ESE
Wind: ESE 3 mph , 6 km/h
Visibility: 3/4 mile , 1.2 km
2019/08/20 14:35 KRPJ 201435Z AUTO 12003KT 3/4SM -VCTSRA OVC041 21/21 A2998 RMK AO2 LTG DSNT SW AND W T02070207
KC09 - Morris-Washburn, Illinois, USA
Distance from station: S 31mi, 51km
Updated: 08/20/2019 9:35am
Mist, Mostly cloudy
Mist, Mostly cloudy
 Wind from calm
Wind: Calm
Temperature: 73°F , 23°C
Dew Point: 73°F , 23°C
Humidity: 100%
Barometer: 1015.2 hPa
Summary: Mist
Clouds: Mostly cloudy
Visibility: 4 miles , 6 km
Cloud details: Mostly cloudy 5000 ft
2019/08/20 14:35 KC09 201435Z AUTO 00000KT 4SM BR BKN050 23/23 A2998 RMK AO2 LTG DSNT SW AND W T02300226
 
KPWK - Palwaukee, Illinois, USA
Distance from station: ENE 34mi, 54km
Updated: 08/20/2019 9:25am
Mist, Overcast
Mist, Overcast
 Wind from calm
Wind: Calm
Temperature: 75°F , 24°C
Dew Point: 72°F , 22°C
Humidity: 89%
Barometer: 1015.6 hPa
Summary: Mist
Clouds: Overcast
Visibility: 5 miles , 8 km
Cloud details: Overcast 500 ft
2019/08/20 14:25 KPWK 201425Z 00000KT 5SM BR OVC005 24/22 A2999 RMK AO2 T02390222
KMDW - Chicago, Illinois, USA
Distance from station: E 38mi, 62km
Updated: 08/20/2019 8:53am
Overcast
Overcast
 Wind from WSW
Wind: WSW 6 mph , 9 km/h
Temperature: 77°F , 25°C
Dew Point: 73°F , 23°C
Humidity: 89%
Barometer: 1016.3 hPa
Clouds: Overcast
Visibility: 8 miles , 13 km
Cloud details: Few Clouds 5000 ft
Few Clouds 20000 ft
Overcast 25000 ft
2019/08/20 13:53 KMDW 201353Z 25005KT 8SM FEW050 FEW200 OVC250 25/23 A3001 RMK AO2 SLP151 T02500233
 
KRFD - Rockford, Illinois, USA
Distance from station: NW 39mi, 62km
Updated: 08/20/2019 9:16am
Thunderstorm, Mist, Overcast
Thunderstorm, Mist, Overcast
 Wind from SSE
Wind: SSE 5 mph , 7 km/h
Temperature: 70°F , 21°C
Dew Point: 70°F , 21°C
Humidity: 100%
Barometer: 1015.9 hPa
Summary: Thunderstorm, Mist
Clouds: Overcast
Visibility: 4 miles , 6 km
Cloud details: Partly cloudy 600 ft
Mostly cloudy 6500 ft
Overcast 13000 ft
2019/08/20 14:16 KRFD 201416Z 15004KT 4SM TS BR SCT006 BKN065CB OVC130 21/21 A3000 RMK AO2 LTG DSNT SW TSB07 OCNL LTGIC W TS W MOV E T02110206
KUGN - Waukegan, Illinois, USA
Distance from station: NE 48mi, 78km
Updated: 08/20/2019 9:31am
Mostly cloudy
Mostly cloudy
 Wind from calm
Wind: Calm
Temperature: 75°F , 24°C
Dew Point: 72°F , 22°C
Humidity: 89%
Barometer: 1015.2 hPa
Clouds: Mostly cloudy
Visibility: 9 miles , 14 km
Cloud details: Mostly cloudy 500 ft
2019/08/20 14:31 KUGN 201431Z 00000KT 9SM BKN005 24/22 A2998 RMK AO2 T02390217